Terminal Aerodrome Forecast
Issued by NWS Omaha/Valley, NE

Home | Current Version | Previous Version | Graphics & Text | Print | Product List | Glossary On
Versions: 1 2 3 4 5 6 7 8 9 10 11 12 13 14 15 16 17
000
FTUS43 KOAX 161405 AAA
TAFOFK
TAF AMD
KOFK 161405Z 1614/1712 19018G28KT P6SM BKN150 WS015/21050KT
     FM161500 24018G28KT P6SM BKN150
     FM161800 31023G32KT P6SM SCT025 BKN050
     FM170300 34013KT P6SM FEW025 SCT070
     FM170700 34008KT P6SM SCT070=

USA.gov is the U.S. government's official web portal to all federal, state and local government web resources and services.